createdAt,value
2019-01-25T00:00:29.445Z,30.90
2019-01-25T00:02:57.954Z,31.53
2019-01-25T00:05:26.532Z,27.43
2019-01-25T00:07:54.898Z,29.37
2019-01-25T00:10:23.331Z,25.53
2019-01-25T00:12:51.761Z,28.13
2019-01-25T00:15:20.416Z,26.10
2019-01-25T00:17:48.946Z,26.60
2019-01-25T00:20:17.624Z,27.07
2019-01-25T00:22:45.969Z,26.30
2019-01-25T00:25:14.516Z,27.20
2019-01-25T00:27:42.979Z,27.23
2019-01-25T00:30:16.784Z,28.03
2019-01-25T00:32:45.329Z,30.13
2019-01-25T00:35:13.762Z,30.60
2019-01-25T00:37:42.177Z,26.10
2019-01-25T00:40:13.778Z,29.33
2019-01-25T00:42:42.252Z,27.23
2019-01-25T00:45:11.762Z,27.77
2019-01-25T00:47:40.299Z,26.17
2019-01-25T00:50:18.004Z,27.73
2019-01-25T00:52:46.475Z,26.77
2019-01-25T00:55:14.915Z,25.90
2019-01-25T00:57:43.315Z,28.47
2019-01-25T01:00:26.215Z,27.70
2019-01-25T01:02:54.571Z,28.07
2019-01-25T01:05:22.989Z,25.90
2019-01-25T01:07:51.861Z,28.80
2019-01-25T01:10:21.240Z,27.40
2019-01-25T01:12:49.637Z,25.97
2019-01-25T01:15:19.217Z,30.23
2019-01-25T01:17:47.734Z,28.83
2019-01-25T01:20:19.191Z,24.10
2019-01-25T01:22:47.825Z,28.30
2019-01-25T01:25:17.281Z,25.47
2019-01-25T01:27:45.707Z,23.60
2019-01-25T01:30:22.260Z,28.80
2019-01-25T01:32:50.849Z,24.73
2019-01-25T01:35:19.408Z,27.27
2019-01-25T01:37:48.129Z,25.70
2019-01-25T01:40:22.294Z,28.53
2019-01-25T01:42:50.855Z,29.00
2019-01-25T01:45:19.312Z,30.10
2019-01-25T01:47:47.727Z,28.43
2019-01-25T01:50:18.417Z,26.37
2019-01-25T01:52:48.860Z,22.23
2019-01-25T01:55:17.302Z,30.27
2019-01-25T01:57:45.656Z,29.43
2019-01-25T02:00:17.529Z,28.20
2019-01-25T02:02:45.998Z,29.93
2019-01-25T02:05:14.409Z,27.60
2019-01-25T02:07:42.703Z,28.23
2019-01-25T02:10:34.730Z,27.07
2019-01-25T02:13:03.139Z,27.40
2019-01-25T02:15:31.740Z,29.03
2019-01-25T02:18:00.151Z,26.57
2019-01-25T02:20:29.663Z,31.00
2019-01-25T02:22:58.162Z,31.30
2019-01-25T02:25:26.668Z,28.07
2019-01-25T02:27:55.085Z,28.13
2019-01-25T02:30:25.649Z,29.90
2019-01-25T02:32:54.134Z,28.07
2019-01-25T02:35:22.481Z,27.83
2019-01-25T02:37:50.926Z,28.60
2019-01-25T02:40:21.625Z,29.63
2019-01-25T02:42:49.997Z,26.43
2019-01-25T02:45:18.273Z,27.70
2019-01-25T02:47:46.887Z,27.30
2019-01-25T02:50:17.784Z,29.37
2019-01-25T02:52:46.165Z,24.53
2019-01-25T02:55:16.815Z,24.97
2019-01-25T02:57:45.408Z,27.47
2019-01-25T03:00:25.630Z,27.73
2019-01-25T03:02:55.053Z,27.97
2019-01-25T03:05:24.715Z,30.80
2019-01-25T03:07:53.187Z,26.70
2019-01-25T03:10:28.431Z,28.43
2019-01-25T03:12:52.796Z,27.77
2019-01-25T03:15:24.073Z,25.03
2019-01-25T03:17:52.580Z,27.63
2019-01-25T03:20:21.011Z,27.50
2019-01-25T03:22:49.494Z,25.33
2019-01-25T03:25:20.909Z,25.60
2019-01-25T03:27:49.366Z,26.23
2019-01-25T03:30:20.168Z,30.90
2019-01-25T03:32:48.647Z,31.60
2019-01-25T03:35:20.052Z,29.47
2019-01-25T03:37:48.441Z,25.43
2019-01-25T03:40:20.081Z,27.77
2019-01-25T03:42:48.902Z,30.73
2019-01-25T03:45:17.501Z,29.60
2019-01-25T03:47:45.828Z,27.00
2019-01-25T03:50:20.029Z,27.40
2019-01-25T03:52:48.307Z,25.33
2019-01-25T03:55:16.927Z,27.33
2019-01-25T03:57:45.253Z,27.33
2019-01-25T04:00:22.298Z,26.70
2019-01-25T04:02:50.701Z,25.50
2019-01-25T04:05:19.310Z,26.70
2019-01-25T04:07:47.792Z,26.30
2019-01-25T04:10:22.363Z,27.07
2019-01-25T04:12:50.742Z,25.60
2019-01-25T04:15:28.468Z,28.50
2019-01-25T04:17:56.790Z,27.67
2019-01-25T04:20:25.318Z,30.30
2019-01-25T04:22:53.591Z,29.47
2019-01-25T04:25:23.193Z,27.43
2019-01-25T04:27:51.906Z,29.20
2019-01-25T04:30:25.538Z,25.20
2019-01-25T04:32:53.985Z,25.47
2019-01-25T04:35:22.368Z,26.97
2019-01-25T04:37:50.823Z,25.80
2019-01-25T04:40:19.510Z,28.80
2019-01-25T04:42:47.883Z,29.10
2019-01-25T04:45:19.526Z,23.47
2019-01-25T04:47:47.957Z,28.73
2019-01-25T04:50:19.487Z,26.17
2019-01-25T04:52:48.029Z,25.37
2019-01-25T04:55:19.558Z,23.90
2019-01-25T04:57:49.038Z,28.30
2019-01-25T05:00:20.615Z,25.60
2019-01-25T05:03:00.359Z,28.50
2019-01-25T05:05:29.335Z,27.33
2019-01-25T05:08:16.423Z,28.23
2019-01-25T05:10:44.815Z,22.50
2019-01-25T05:13:13.176Z,27.20
2019-01-25T05:15:41.666Z,21.87
2019-01-25T05:18:10.811Z,17.83
2019-01-25T05:20:39.939Z,16.63
2019-01-25T05:23:08.504Z,22.40
2019-01-25T05:25:37.150Z,19.80
2019-01-25T05:28:14.804Z,21.97
2019-01-25T05:30:59.710Z,20.70
2019-01-25T05:33:28.135Z,24.57
2019-01-25T05:35:56.622Z,27.97
2019-01-25T05:38:25.130Z,26.47
2019-01-25T05:40:55.379Z,23.80
2019-01-25T05:43:25.638Z,31.33
2019-01-25T05:45:54.269Z,24.77
2019-01-25T05:48:26.595Z,28.80
2019-01-25T05:50:55.029Z,28.60
2019-01-25T05:53:23.346Z,24.30
2019-01-25T05:55:51.747Z,25.13
2019-01-25T05:58:20.140Z,29.10
2019-01-25T06:00:48.506Z,26.93
2019-01-25T06:03:16.934Z,24.77
2019-01-25T06:05:45.375Z,24.80
2019-01-25T06:08:32.515Z,27.50
2019-01-25T06:11:03.031Z,29.00
2019-01-25T06:13:31.454Z,23.07
2019-01-25T06:15:59.934Z,25.30
2019-01-25T06:18:28.278Z,28.27
2019-01-25T06:20:58.957Z,26.23
2019-01-25T06:23:27.307Z,24.70
2019-01-25T06:25:57.977Z,26.03
2019-01-25T06:28:26.320Z,28.43
2019-01-25T06:30:54.690Z,22.53
2019-01-25T06:33:23.185Z,22.93
2019-01-25T06:35:51.473Z,25.20
2019-01-25T06:38:19.798Z,24.23
2019-01-25T06:40:48.212Z,23.30
2019-01-25T06:43:16.784Z,24.73
2019-01-25T06:45:45.218Z,27.90
2019-01-25T06:48:13.673Z,25.10
2019-01-25T06:50:42.087Z,26.40
2019-01-25T06:53:10.528Z,25.60
2019-01-25T06:55:38.981Z,27.53
2019-01-25T06:58:08.949Z,26.30
2019-01-25T07:00:51.035Z,25.57
2019-01-25T07:03:19.343Z,21.93
2019-01-25T07:05:47.810Z,26.33
2019-01-25T07:08:17.767Z,25.20
2019-01-25T07:10:46.211Z,27.70
2019-01-25T07:13:14.623Z,24.20
2019-01-25T07:15:43.023Z,26.93
2019-01-25T07:18:11.592Z,22.27
2019-01-25T07:20:40.002Z,25.43
2019-01-25T07:23:08.439Z,27.87
2019-01-25T07:25:36.903Z,29.77
2019-01-25T07:28:05.347Z,23.80
2019-01-25T07:30:33.738Z,26.20
2019-01-25T07:33:02.330Z,29.67
2019-01-25T07:35:30.877Z,22.40
2019-01-25T07:37:59.211Z,21.50
2019-01-25T07:40:27.719Z,28.70
2019-01-25T07:42:56.111Z,30.53
2019-01-25T07:45:24.487Z,27.70
2019-01-25T07:47:52.980Z,26.23
2019-01-25T07:50:21.430Z,23.87
2019-01-25T07:52:49.810Z,25.57
2019-01-25T07:55:18.201Z,29.60
2019-01-25T07:57:46.570Z,25.10
2019-01-25T08:00:16.681Z,23.57
2019-01-25T08:02:45.299Z,25.83
2019-01-25T08:05:13.700Z,29.43
2019-01-25T08:07:42.095Z,25.33
2019-01-25T08:10:13.958Z,20.00
2019-01-25T08:12:42.387Z,31.93
2019-01-25T08:15:14.090Z,16.43
2019-01-25T08:17:42.651Z,15.70
2019-01-25T08:20:13.641Z,27.80
2019-01-25T08:22:42.017Z,24.10
2019-01-25T08:25:10.519Z,28.27
2019-01-25T08:27:38.985Z,28.23
2019-01-25T08:30:13.649Z,22.77
2019-01-25T08:32:42.051Z,26.07
2019-01-25T08:35:12.800Z,27.67
2019-01-25T08:37:41.245Z,27.40
2019-01-25T08:40:12.986Z,28.83
2019-01-25T08:42:41.423Z,21.83
2019-01-25T08:45:13.125Z,26.10
2019-01-25T08:47:41.534Z,28.93
2019-01-25T08:50:25.232Z,28.17
2019-01-25T08:52:53.770Z,27.67
2019-01-25T08:55:22.242Z,28.93
2019-01-25T08:57:50.606Z,24.57
2019-01-25T09:00:22.591Z,29.50
2019-01-25T09:02:50.985Z,24.60
2019-01-25T09:05:19.534Z,28.67
2019-01-25T09:07:47.879Z,25.63
2019-01-25T09:10:19.322Z,27.20
2019-01-25T09:12:47.864Z,31.30
2019-01-25T09:15:22.686Z,28.87
2019-01-25T09:17:51.610Z,24.20
2019-01-25T09:20:22.478Z,24.23
2019-01-25T09:22:50.851Z,17.60
2019-01-25T09:25:19.159Z,27.73
2019-01-25T09:27:48.229Z,24.47
2019-01-25T09:30:22.380Z,26.40
2019-01-25T09:32:50.828Z,24.50
2019-01-25T09:35:19.542Z,27.27
2019-01-25T09:37:48.375Z,21.33
2019-01-25T09:40:20.382Z,15.50
2019-01-25T09:42:48.726Z,21.47
2019-01-25T09:45:17.075Z,13.90
2019-01-25T09:47:45.529Z,27.70
2019-01-25T09:50:17.271Z,25.17
2019-01-25T09:52:45.682Z,28.40
2019-01-25T09:55:17.286Z,28.23
2019-01-25T09:57:45.651Z,38.77
2019-01-25T10:00:32.038Z,6.50
2019-01-25T10:03:00.438Z,12.20
2019-01-25T10:05:28.936Z,26.50
2019-01-25T10:07:57.292Z,16.30
2019-01-25T10:10:25.846Z,22.87
2019-01-25T10:12:54.193Z,23.43
2019-01-25T10:15:28.639Z,22.70
2019-01-25T10:17:57.131Z,22.73
2019-01-25T10:20:25.620Z,16.10
2019-01-25T10:22:53.921Z,22.40
2019-01-25T10:25:22.195Z,22.93
2019-01-25T10:27:50.684Z,25.77
2019-01-25T10:30:24.731Z,25.13
2019-01-25T10:32:53.151Z,20.20
2019-01-25T10:35:21.593Z,24.57
2019-01-25T10:37:50.181Z,25.60
2019-01-25T10:40:21.667Z,22.30
2019-01-25T10:42:53.497Z,20.27
2019-01-25T10:45:39.682Z,24.23
2019-01-25T10:48:09.709Z,26.20
2019-01-25T10:50:38.215Z,26.30
2019-01-25T10:53:08.746Z,26.00
2019-01-25T10:55:37.057Z,29.63
2019-01-25T10:58:06.219Z,21.03
2019-01-25T11:00:34.639Z,25.00
2019-01-25T11:03:03.011Z,21.03
2019-01-25T11:05:34.210Z,21.03
2019-01-25T11:08:02.763Z,23.40
2019-01-25T11:10:31.262Z,24.97
2019-01-25T11:13:00.995Z,18.57
2019-01-25T11:15:29.935Z,15.10
2019-01-25T11:17:58.279Z,25.53
2019-01-25T11:20:27.825Z,23.33
2019-01-25T11:22:56.214Z,22.93
2019-01-25T11:25:30.830Z,24.40
2019-01-25T11:27:59.263Z,25.27
2019-01-25T11:30:27.723Z,23.10
2019-01-25T11:32:56.160Z,19.03
2019-01-25T11:35:25.387Z,26.90
2019-01-25T11:37:53.923Z,24.50
2019-01-25T11:40:28.572Z,22.97
2019-01-25T11:42:57.667Z,20.43
2019-01-25T11:45:26.188Z,22.23
2019-01-25T11:47:55.298Z,21.00
2019-01-25T11:50:24.379Z,24.83
2019-01-25T11:52:52.782Z,25.37
2019-01-25T11:55:21.383Z,22.30
2019-01-25T11:57:50.028Z,19.20
2019-01-25T12:00:22.263Z,23.47
2019-01-25T12:02:50.947Z,21.40
2019-01-25T12:05:30.086Z,20.30
2019-01-25T12:07:59.047Z,24.40
2019-01-25T12:10:35.238Z,20.40
2019-01-25T12:13:04.684Z,20.80
2019-01-25T12:15:35.852Z,23.27
2019-01-25T12:18:06.340Z,22.80
2019-01-25T12:20:35.711Z,22.20
2019-01-25T12:23:04.066Z,22.70
2019-01-25T12:25:32.672Z,20.00
2019-01-25T12:28:05.312Z,21.20
2019-01-25T12:30:37.739Z,21.87
2019-01-25T12:33:03.996Z,21.80
2019-01-25T12:35:34.863Z,20.40
2019-01-25T12:38:03.157Z,23.73
2019-01-25T12:40:31.549Z,20.27
2019-01-25T12:42:59.995Z,21.77
2019-01-25T12:45:30.721Z,19.37
2019-01-25T12:47:59.187Z,21.80
2019-01-25T12:50:36.551Z,22.07
2019-01-25T12:53:07.682Z,20.23
2019-01-25T12:55:36.093Z,23.00
2019-01-25T12:58:05.376Z,22.40
2019-01-25T13:00:49.697Z,25.63
2019-01-25T13:03:18.929Z,13.57
2019-01-25T13:05:47.519Z,13.47
2019-01-25T13:08:15.958Z,23.90
2019-01-25T13:10:44.310Z,18.60
2019-01-25T13:13:12.712Z,18.27
2019-01-25T13:15:41.193Z,22.70
2019-01-25T13:18:09.773Z,25.53
2019-01-25T13:20:39.670Z,28.73
2019-01-25T13:23:08.578Z,24.50
2019-01-25T13:25:36.895Z,12.80
2019-01-25T13:28:05.436Z,27.00
2019-01-25T13:30:33.812Z,26.37
2019-01-25T13:33:02.388Z,28.63
2019-01-25T13:35:30.925Z,25.80
2019-01-25T13:37:59.793Z,29.00
2019-01-25T13:40:28.938Z,28.00
2019-01-25T13:42:57.452Z,26.33
2019-01-25T13:45:32.512Z,31.87
2019-01-25T13:48:01.049Z,20.90
2019-01-25T13:50:30.133Z,28.20
2019-01-25T13:52:58.414Z,32.93
2019-01-25T13:55:26.851Z,32.70
2019-01-25T13:57:55.237Z,25.70
2019-01-25T14:00:32.484Z,24.10
2019-01-25T14:03:00.923Z,20.67
2019-01-25T14:05:29.371Z,30.70
2019-01-25T14:07:57.813Z,31.30
2019-01-25T14:10:29.830Z,30.40
2019-01-25T14:12:58.399Z,23.37
2019-01-25T14:15:26.808Z,31.67
2019-01-25T14:17:55.157Z,24.57
2019-01-25T14:20:26.851Z,29.23
2019-01-25T14:22:55.332Z,28.37
2019-01-25T14:25:23.605Z,33.10
2019-01-25T14:27:52.118Z,27.40
2019-01-25T14:30:35.521Z,30.40
2019-01-25T14:33:04.950Z,29.40
2019-01-25T14:35:33.362Z,33.20
2019-01-25T14:38:01.702Z,32.13
2019-01-25T14:40:30.164Z,34.10
2019-01-25T14:42:58.461Z,25.90
2019-01-25T14:45:27.362Z,27.93
2019-01-25T14:47:55.872Z,26.40
2019-01-25T14:50:27.358Z,35.23
2019-01-25T14:52:55.835Z,33.03
2019-01-25T14:55:24.177Z,29.30
2019-01-25T14:57:52.533Z,30.77
2019-01-25T15:00:21.008Z,25.63
2019-01-25T15:02:49.431Z,34.97
2019-01-25T15:05:20.314Z,29.80
2019-01-25T15:07:48.618Z,31.87
2019-01-25T15:10:19.502Z,33.10
2019-01-25T15:12:48.758Z,34.47
2019-01-25T15:15:17.159Z,30.57
2019-01-25T15:17:45.431Z,28.33
2019-01-25T15:20:17.006Z,28.07
2019-01-25T15:22:45.332Z,26.57
2019-01-25T15:25:13.798Z,26.77
2019-01-25T15:27:42.281Z,26.37
2019-01-25T15:30:28.632Z,27.27
2019-01-25T15:32:57.012Z,24.73
2019-01-25T15:35:25.307Z,22.67
2019-01-25T15:37:53.612Z,22.73
2019-01-25T15:40:23.189Z,23.73
2019-01-25T15:42:51.501Z,22.50
2019-01-25T15:45:21.784Z,24.40
2019-01-25T15:47:50.416Z,21.97
2019-01-25T15:50:24.705Z,22.00
2019-01-25T15:52:53.293Z,17.00
2019-01-25T15:55:21.810Z,15.97
2019-01-25T15:57:50.281Z,18.07
2019-01-25T16:00:23.732Z,21.80
2019-01-25T16:02:52.282Z,18.83
2019-01-25T16:05:21.717Z,20.93
2019-01-25T16:07:50.191Z,20.90
2019-01-25T16:10:20.659Z,18.27
2019-01-25T16:12:49.182Z,18.27
2019-01-25T16:15:19.879Z,19.00
2019-01-25T16:17:48.192Z,18.40
2019-01-25T16:20:18.806Z,19.53
2019-01-25T16:22:49.392Z,17.87
2019-01-25T16:25:23.629Z,20.57
2019-01-25T16:27:51.955Z,15.00
2019-01-25T16:30:29.016Z,18.37
2019-01-25T16:32:58.279Z,16.57
2019-01-25T16:35:26.695Z,15.90
2019-01-25T16:37:55.317Z,17.60
2019-01-25T16:40:27.150Z,16.77
2019-01-25T16:42:55.752Z,15.90
2019-01-25T16:45:36.039Z,12.00
2019-01-25T16:48:04.712Z,13.90
2019-01-25T16:50:33.341Z,17.87
2019-01-25T16:53:01.964Z,19.37
2019-01-25T16:55:30.634Z,15.07
2019-01-25T16:57:59.232Z,15.50
2019-01-25T17:00:33.515Z,16.70
2019-01-25T17:03:04.367Z,11.70
2019-01-25T17:05:33.204Z,12.90
2019-01-25T17:08:01.854Z,9.03
2019-01-25T17:10:30.409Z,11.97
2019-01-25T17:13:03.535Z,12.20
2019-01-25T17:15:32.222Z,12.97
2019-01-25T17:18:00.648Z,12.17
2019-01-25T17:20:30.428Z,6.40
2019-01-25T17:22:58.839Z,9.70
2019-01-25T17:25:27.227Z,11.60
2019-01-25T17:27:55.722Z,10.73
2019-01-25T17:30:32.170Z,7.97
2019-01-25T17:33:01.837Z,9.80
2019-01-25T17:35:31.608Z,6.10
2019-01-25T17:38:00.040Z,7.30
2019-01-25T17:40:31.621Z,6.00
2019-01-25T17:43:00.044Z,10.77
2019-01-25T17:45:28.486Z,11.90
2019-01-25T17:47:56.876Z,5.63
2019-01-25T17:50:25.186Z,11.70
2019-01-25T17:52:53.633Z,10.80
2019-01-25T17:55:22.009Z,9.50
2019-01-25T17:57:50.491Z,10.30
2019-01-25T18:00:26.080Z,11.03
2019-01-25T18:02:54.386Z,10.93
2019-01-25T18:05:22.966Z,12.50
2019-01-25T18:07:51.263Z,13.57
2019-01-25T18:10:22.555Z,12.90
2019-01-25T18:12:51.072Z,16.10
2019-01-25T18:15:20.945Z,11.83
2019-01-25T18:17:51.384Z,16.83
2019-01-25T18:20:22.848Z,19.13
2019-01-25T18:22:51.608Z,8.23
2019-01-25T18:25:40.110Z,16.60
2019-01-25T18:28:18.856Z,16.73
2019-01-25T18:31:02.104Z,14.87
2019-01-25T18:33:31.324Z,23.70
2019-01-25T18:36:00.324Z,14.30
2019-01-25T18:38:29.223Z,14.77
2019-01-25T18:41:20.009Z,19.47
2019-01-25T18:43:48.764Z,13.37
2019-01-25T18:46:17.642Z,10.77
2019-01-25T18:48:56.526Z,19.47
2019-01-25T18:51:26.232Z,18.47
2019-01-25T18:53:55.111Z,9.83
2019-01-25T18:56:24.189Z,14.27
2019-01-25T18:58:58.041Z,15.30
2019-01-25T19:01:26.896Z,10.50
2019-01-25T19:03:56.864Z,19.33
2019-01-25T19:06:25.197Z,18.90
2019-01-25T19:08:54.066Z,14.30
2019-01-25T19:11:23.247Z,10.93
2019-01-25T19:13:51.591Z,22.87
2019-01-25T19:16:19.996Z,15.37
2019-01-25T19:18:48.296Z,8.97
2019-01-25T19:21:16.814Z,17.13
2019-01-25T19:23:45.149Z,11.50
2019-01-25T19:26:13.688Z,9.83
2019-01-25T19:28:41.992Z,15.00
2019-01-25T19:31:10.379Z,21.90
2019-01-25T19:33:38.704Z,13.87
2019-01-25T19:36:07.027Z,18.57
2019-01-25T19:38:35.386Z,21.90
2019-01-25T19:41:03.756Z,18.10
2019-01-25T19:43:32.153Z,22.53
2019-01-25T19:46:00.934Z,20.20
2019-01-25T19:48:29.230Z,13.67
2019-01-25T19:50:57.505Z,21.23
2019-01-25T19:53:25.825Z,10.50
2019-01-25T19:55:54.151Z,6.80
2019-01-25T19:58:22.512Z,11.23
2019-01-25T20:00:50.923Z,13.03
2019-01-25T20:03:19.376Z,9.60
2019-01-25T20:05:47.671Z,16.00
2019-01-25T20:08:16.084Z,12.13
2019-01-25T20:10:44.713Z,18.80
2019-01-25T20:13:13.087Z,8.37
2019-01-25T20:15:41.460Z,19.20
2019-01-25T20:18:09.978Z,12.20
2019-01-25T20:20:40.858Z,10.80
2019-01-25T20:23:09.225Z,15.50
2019-01-25T20:25:37.604Z,14.00
2019-01-25T20:28:08.428Z,8.57
2019-01-25T20:30:37.001Z,8.47
2019-01-25T20:33:05.914Z,15.97
2019-01-25T20:35:36.783Z,14.90
2019-01-25T20:38:05.573Z,10.53
2019-01-25T20:40:33.964Z,9.70
2019-01-25T20:43:02.841Z,8.90
2019-01-25T20:45:37.130Z,12.73
2019-01-25T20:48:05.735Z,8.47
2019-01-25T20:50:36.908Z,12.93
2019-01-25T20:53:07.472Z,8.07
2019-01-25T20:55:35.895Z,5.40
2019-01-25T20:58:04.524Z,10.07
2019-01-25T21:00:36.027Z,7.83
2019-01-25T21:03:05.562Z,8.37
2019-01-25T21:05:34.018Z,5.87
2019-01-25T21:08:02.345Z,12.20
2019-01-25T21:10:30.723Z,8.33
2019-01-25T21:12:59.031Z,9.10
2019-01-25T21:15:34.995Z,3.23
2019-01-25T21:17:58.921Z,9.00
2019-01-25T21:20:32.816Z,5.63
2019-01-25T21:23:01.240Z,5.83
2019-01-25T21:25:29.739Z,4.17
2019-01-25T21:27:58.028Z,6.43
2019-01-25T21:30:32.097Z,3.17
2019-01-25T21:33:00.361Z,6.83
2019-01-25T21:35:28.626Z,6.27
2019-01-25T21:37:57.022Z,3.40
2019-01-25T21:40:27.934Z,6.80
2019-01-25T21:42:56.207Z,6.83
2019-01-25T21:45:27.005Z,8.67
2019-01-25T21:47:55.334Z,3.63
2019-01-25T21:50:29.331Z,6.47
2019-01-25T21:52:57.618Z,4.27
2019-01-25T21:55:26.000Z,8.47
2019-01-25T21:57:54.431Z,4.93
2019-01-25T22:00:25.201Z,6.87
2019-01-25T22:02:53.540Z,6.23
2019-01-25T22:05:21.922Z,6.03
2019-01-25T22:07:50.196Z,3.80
2019-01-25T22:10:24.896Z,5.90
2019-01-25T22:12:53.299Z,3.73
2019-01-25T22:15:21.672Z,4.10
2019-01-25T22:17:50.062Z,4.27
2019-01-25T22:20:21.074Z,5.23
2019-01-25T22:22:49.410Z,7.23
2019-01-25T22:25:17.712Z,3.30
2019-01-25T22:27:48.528Z,5.83
2019-01-25T22:30:20.191Z,5.60
2019-01-25T22:32:48.511Z,5.83
2019-01-25T22:35:16.898Z,2.77
2019-01-25T22:37:45.233Z,3.40
2019-01-25T22:40:22.270Z,9.40
2019-01-25T22:42:50.703Z,5.30
2019-01-25T22:45:24.601Z,6.50
2019-01-25T22:47:52.968Z,5.73
2019-01-25T22:50:32.479Z,6.43
2019-01-25T22:53:00.776Z,5.10
2019-01-25T22:55:29.192Z,6.63
2019-01-25T22:57:57.471Z,3.80
2019-01-25T23:00:51.451Z,7.00
2019-01-25T23:03:42.154Z,3.87
2019-01-25T23:06:31.634Z,5.60
2019-01-25T23:09:05.026Z,4.33
2019-01-25T23:11:33.337Z,3.33
2019-01-25T23:14:01.716Z,5.03
2019-01-25T23:16:30.087Z,3.50
2019-01-25T23:18:58.396Z,5.30
2019-01-25T23:21:26.914Z,8.50
2019-01-25T23:23:55.242Z,7.83
2019-01-25T23:26:23.650Z,11.20
2019-01-25T23:28:51.928Z,10.00
2019-01-25T23:31:20.329Z,9.30
2019-01-25T23:33:48.615Z,8.67
2019-01-25T23:36:17.094Z,9.03
2019-01-25T23:38:45.354Z,8.83
2019-01-25T23:41:13.705Z,7.70
2019-01-25T23:43:42.694Z,7.87
2019-01-25T23:46:13.897Z,9.50
2019-01-25T23:48:43.433Z,9.37
2019-01-25T23:51:12.516Z,8.47
2019-01-25T23:53:40.977Z,8.97
2019-01-25T23:56:09.561Z,4.40
2019-01-25T23:58:38.009Z,7.50
